Terminal Aerodrome Forecast
Issued by NWS

Home | Current Version | Previous Version | Text Only | Print | Product List | Glossary On
Versions: 1 2 3 4 5 6 7 8 9 10 11 12
628
FTUS44 KLUB 231139
TAFCDS
TAF
KCDS 231139Z 2312/2412 25014KT P6SM SCT250
     FM231800 26022G30KT P6SM SCT250
     FM240100 29013KT P6SM SCT250=

USA.gov is the U.S. government's official web portal to all federal, state and local government web resources and services.